Time;durP1;ratioP1;P1;durP2;ratioP2;P2;SDS_P1;SDS_P2;PMS_P1;PMS_P2;Temp;Humidity;BMP_temperature;BMP_pressure;BME280_temperature;BME280_humidity;BME280_pressure;Samples;Min_cycle;Max_cycle;Signal;HPM_P1;HPM_P2
2023/11/19 00:01:34;;;;;;;;;;;;;;;25.06;44.91;94451.78;5042567;28;7005;-62
2023/11/19 00:04:00;;;;;;;;;;;;;;;25.06;44.94;94458.03;5042438;28;8726;-62
2023/11/19 00:06:27;;;;;;;;;;;;;;;25.06;44.01;94449.78;5051437;28;7242;-62
2023/11/19 00:08:55;;;;;;;;;;;;;;;25.07;44.70;94447.78;5051646;28;9033;-62
2023/11/19 00:11:21;;;;;;;;;;;;;;;25.06;44.09;94446.28;5047059;28;6989;-62
2023/11/19 00:13:48;;;;;;;;;;;;;;;25.06;44.04;94447.03;5052837;28;8768;-62
2023/11/19 00:16:25;;;;;;;;;;;;;;;25.07;45.02;94442.28;5042093;28;9284;-62
2023/11/19 00:18:59;;;;;;;;;;;;;;;25.06;44.00;94447.03;5054752;28;7300;-62
2023/11/19 00:21:29;;;;;;;;;;;;;;;25.04;44.85;94435.78;5047140;28;9029;-63
2023/11/19 00:24:01;;;;;;;;;;;;;;;25.06;44.51;94430.53;5063075;28;7334;-57
2023/11/19 00:26:42;;;;;;;;;;;;;;;25.05;44.84;94428.28;5062347;28;7125;-57
2023/11/19 00:29:22;;;;;;;;;;;;;;;25.05;44.77;94411.78;5044682;28;7163;-57
2023/11/19 00:31:50;;;;;;;;;;;;;;;25.04;44.42;94411.03;5056206;28;7241;-56
2023/11/19 00:34:22;;;;;;;;;;;;;;;25.03;44.61;94406.78;5053867;28;6994;-57
2023/11/19 00:36:56;;;;;;;;;;;;;;;25.05;44.41;94404.28;5053636;28;8997;-57
2023/11/19 00:39:35;;;;;;;;;;;;;;;25.03;44.35;94415.03;5069576;28;8679;-57
2023/11/19 00:42:26;;;;;;;;;;;;;;;25.06;44.55;94425.03;5043077;28;7343;-57
2023/11/19 00:45:08;;;;;;;;;;;;;;;25.04;44.17;94426.78;5055036;28;7198;-57
2023/11/19 00:48:03;;;;;;;;;;;;;;;25.05;44.77;94428.28;5061773;28;9186;-57
2023/11/19 00:50:56;;;;;;;;;;;;;;;25.06;44.88;94432.53;5046005;28;7242;-57
2023/11/19 00:53:22;;;;;;;;;;;;;;;25.05;44.43;94431.03;5050037;28;7156;-57
2023/11/19 00:55:51;;;;;;;;;;;;;;;25.01;44.12;94428.53;5056330;28;7217;-57
2023/11/19 00:58:34;;;;;;;;;;;;;;;25.06;44.86;94432.53;5064510;28;6984;-57
2023/11/19 01:01:00;;;;;;;;;;;;;;;25.03;44.83;94425.28;5068895;28;7247;-57
2023/11/19 01:03:29;;;;;;;;;;;;;;;25.04;44.94;94429.53;5040646;28;7298;-57
2023/11/19 01:05:56;;;;;;;;;;;;;;;25.04;44.85;94422.03;5058383;28;7189;-57
2023/11/19 01:08:38;;;;;;;;;;;;;;;25.04;44.06;94413.78;5059515;28;7266;-57
2023/11/19 01:11:04;;;;;;;;;;;;;;;25.06;44.55;94416.75;5044949;28;6949;-57
2023/11/19 01:13:52;;;;;;;;;;;;;;;25.06;44.26;94421.50;5036820;28;7009;-57
2023/11/19 01:16:26;;;;;;;;;;;;;;;25.03;44.46;94417.03;5052708;28;7089;-57
2023/11/19 01:19:03;;;;;;;;;;;;;;;25.05;43.89;94426.28;5061338;28;7206;-57
2023/11/19 01:21:47;;;;;;;;;;;;;;;25.05;44.23;94412.53;5056913;28;6971;-57
2023/11/19 01:24:15;;;;;;;;;;;;;;;25.06;44.86;94413.25;5042518;28;7000;-57
2023/11/19 01:26:51;;;;;;;;;;;;;;;25.04;44.36;94413.03;5051256;28;8843;-57
2023/11/19 01:29:22;;;;;;;;;;;;;;;25.04;44.00;94410.25;5044090;28;9132;-57
2023/11/19 01:32:07;;;;;;;;;;;;;;;25.05;43.86;94412.53;5055976;28;9110;-55
2023/11/19 01:34:40;;;;;;;;;;;;;;;25.05;44.53;94406.28;5049650;28;7260;-55
2023/11/19 01:37:14;;;;;;;;;;;;;;;25.05;44.61;94412.53;5074305;28;9378;-55
2023/11/19 01:39:40;;;;;;;;;;;;;;;25.05;43.88;94393.25;5052377;28;7267;-55
2023/11/19 01:42:12;;;;;;;;;;;;;;;25.04;44.71;94382.75;5052418;28;7132;-55
2023/11/19 01:44:58;;;;;;;;;;;;;;;25.04;44.77;94371.75;5043208;28;9439;-55
2023/11/19 01:47:44;;;;;;;;;;;;;;;25.02;44.86;94355.00;5066796;28;7663;-55
2023/11/19 01:50:12;;;;;;;;;;;;;;;25.04;44.93;94360.72;5049681;28;7499;-56
2023/11/19 01:53:08;;;;;;;;;;;;;;;25.05;44.13;94345.72;5042637;28;7295;-56
2023/11/19 01:55:49;;;;;;;;;;;;;;;25.04;43.86;94355.22;4983894;28;8874;-55
2023/11/19 01:58:17;;;;;;;;;;;;;;;25.04;43.95;94344.97;4993236;28;9126;-55
2023/11/19 02:00:47;;;;;;;;;;;;;;;25.04;43.94;94353.22;4985589;28;7261;-55
2023/11/19 02:03:47;;;;;;;;;;;;;;;25.06;44.91;94353.47;5011866;28;6983;-55
2023/11/19 02:06:18;;;;;;;;;;;;;;;25.06;43.76;94352.72;4934986;28;7243;-55
2023/11/19 02:09:19;;;;;;;;;;;;;;;25.06;44.19;94358.97;4950310;28;7259;-55
2023/11/19 02:12:21;;;;;;;;;;;;;;;25.07;43.85;94356.97;4959971;28;7320;-55
2023/11/19 02:14:50;;;;;;;;;;;;;;;25.04;43.94;94341.47;4922114;29;7462;-55
2023/11/19 02:17:37;;;;;;;;;;;;;;;25.06;44.63;94331.44;4916482;29;7268;-55
2023/11/19 02:20:12;;;;;;;;;;;;;;;25.05;44.33;94323.72;4914919;29;9270;-55
2023/11/19 02:23:17;;;;;;;;;;;;;;;25.07;43.67;94326.69;4914983;29;9384;-56
2023/11/19 02:26:16;;;;;;;;;;;;;;;25.07;44.12;94332.22;4915375;29;7094;-55
2023/11/19 02:28:43;;;;;;;;;;;;;;;25.04;44.70;94327.72;4860937;29;8923;-56
2023/11/19 02:31:13;;;;;;;;;;;;;;;25.05;44.38;94324.47;4856970;29;7218;-55
2023/11/19 02:33:39;;;;;;;;;;;;;;;25.06;44.21;94330.69;4840993;29;7006;-55
2023/11/19 02:36:24;;;;;;;;;;;;;;;25.07;43.55;94321.19;4847680;29;7052;-55
2023/11/19 02:39:21;;;;;;;;;;;;;;;25.07;43.55;94310.19;4850463;29;8364;-55
2023/11/19 02:42:45;;;;;;;;;;;;;;;25.07;43.64;94299.19;4877605;29;7226;-63
2023/11/19 02:45:14;;;;;;;;;;;;;;;25.03;43.96;94293.22;4899961;29;7051;-62
2023/11/19 02:47:44;;;;;;;;;;;;;;;25.06;44.36;94275.66;4912357;29;7532;-62
2023/11/19 02:50:27;;;;;;;;;;;;;;;25.05;44.59;94254.91;4900170;29;6984;-63
2023/11/19 02:52:58;;;;;;;;;;;;;;;25.05;43.69;94252.16;4917559;29;8792;-62
2023/11/19 02:55:49;;;;;;;;;;;;;;;25.05;43.77;94257.66;4926832;29;8249;-63
2023/11/19 02:58:34;;;;;;;;;;;;;;;25.03;43.86;94249.94;4931025;28;7552;-62
2023/11/19 03:04:47;;;;;;;;;;;;;;;25.06;44.13;94267.41;4962766;28;9809;-62
2023/11/19 03:07:30;;;;;;;;;;;;;;;25.07;44.48;94277.16;5002895;28;7596;-62
2023/11/19 03:10:43;;;;;;;;;;;;;;;25.06;43.56;94289.41;5010038;28;7234;-62
2023/11/19 03:13:17;;;;;;;;;;;;;;;25.05;43.75;94310.72;4942433;29;9044;-63
2023/11/19 03:16:12;;;;;;;;;;;;;;;25.06;44.39;94303.19;4922567;29;7003;-63
2023/11/19 03:18:56;;;;;;;;;;;;;;;25.04;43.65;94311.19;4928208;28;6994;-62
2023/11/19 03:21:42;;;;;;;;;;;;;;;25.06;43.90;94325.94;4953113;29;9219;-63
2023/11/19 03:24:28;;;;;;;;;;;;;;;25.05;44.02;94318.97;4936487;29;7009;-63
2023/11/19 03:26:58;;;;;;;;;;;;;;;25.05;43.56;94310.72;4926315;29;7230;-62
2023/11/19 03:29:29;;;;;;;;;;;;;;;25.07;43.72;94316.44;4934760;29;7264;-62
2023/11/19 03:32:49;;;;;;;;;;;;;;;25.08;44.25;94319.94;4943111;28;7001;-62
2023/11/19 03:35:24;;;;;;;;;;;;;;;25.08;43.44;94320.69;4921630;28;8754;-62
2023/11/19 03:37:51;;;;;;;;;;;;;;;25.08;43.76;94311.66;4922075;28;8661;-63
2023/11/19 03:40:22;;;;;;;;;;;;;;;25.07;43.96;94313.69;4920288;29;7423;-62
2023/11/19 03:43:19;;;;;;;;;;;;;;;25.06;43.76;94308.69;4936313;29;7018;-62
2023/11/19 03:45:56;;;;;;;;;;;;;;;25.04;43.62;94306.44;4931513;28;8377;-62
2023/11/19 03:48:34;;;;;;;;;;;;;;;25.07;44.33;94310.19;4912346;29;7124;-63
2023/11/19 03:51:50;;;;;;;;;;;;;;;25.05;43.95;94310.72;4966977;28;9051;-63
2023/11/19 03:54:23;;;;;;;;;;;;;;;25.06;44.02;94300.44;4926276;28;7084;-57
2023/11/19 03:57:05;;;;;;;;;;;;;;;25.04;43.95;94302.94;4972103;28;7536;-57
2023/11/19 03:59:45;;;;;;;;;;;;;;;25.06;43.56;94319.69;4967790;28;7324;-56
2023/11/19 04:02:15;;;;;;;;;;;;;;;25.04;43.51;94322.22;4940480;28;6989;-57
2023/11/19 04:04:50;;;;;;;;;;;;;;;25.04;43.81;94325.72;4967239;28;7278;-56
2023/11/19 04:07:17;;;;;;;;;;;;;;;25.06;44.24;94327.94;4948511;28;9116;-56
2023/11/19 04:09:46;;;;;;;;;;;;;;;25.08;43.71;94325.44;4977131;28;9338;-57
2023/11/19 04:12:15;;;;;;;;;;;;;;;25.03;43.56;94317.97;4985681;28;7270;-57
2023/11/19 04:15:29;;;;;;;;;;;;;;;25.07;44.00;94321.19;4996711;28;7502;-57
2023/11/19 04:18:27;;;;;;;;;;;;;;;25.06;44.09;94325.19;4948927;28;8465;-56
2023/11/19 04:20:54;;;;;;;;;;;;;;;25.07;43.67;94326.69;4910374;29;8740;-57
2023/11/19 04:23:24;;;;;;;;;;;;;;;25.03;44.27;94338.00;4915391;29;8573;-57
2023/11/19 04:26:19;;;;;;;;;;;;;;;25.05;43.30;94332.72;4916266;29;7028;-57
2023/11/19 04:28:55;;;;;;;;;;;;;;;25.02;43.79;94342.00;4900385;29;9050;-57
2023/11/19 04:31:23;;;;;;;;;;;;;;;25.05;43.97;94351.22;4900883;29;7258;-57
2023/11/19 04:34:00;;;;;;;;;;;;;;;25.06;44.22;94358.22;4881316;29;9082;-57
2023/11/19 04:36:29;;;;;;;;;;;;;;;25.06;43.57;94360.97;4896440;29;9112;-57
2023/11/19 04:38:55;;;;;;;;;;;;;;;25.03;43.40;94351.00;4909683;29;8986;-57
2023/11/19 04:41:23;;;;;;;;;;;;;;;25.05;43.90;94356.75;4895179;29;7193;-57
2023/11/19 04:43:49;;;;;;;;;;;;;;;25.04;43.42;94352.47;4897167;29;7091;-56
2023/11/19 04:46:19;;;;;;;;;;;;;;;25.05;43.33;94365.00;4899164;29;8825;-57
2023/11/19 04:49:03;;;;;;;;;;;;;;;25.04;43.57;94357.97;4882392;29;9255;-57
2023/11/19 04:51:42;;;;;;;;;;;;;;;25.05;43.82;94365.75;4908050;29;7214;-57
2023/11/19 04:54:25;;;;;;;;;;;;;;;25.03;43.40;94367.50;4902823;29;7482;-57
2023/11/19 04:57:42;;;;;;;;;;;;;;;25.04;43.38;94369.75;4925815;28;8552;-57
2023/11/19 05:00:25;;;;;;;;;;;;;;;25.04;43.71;94366.22;4941380;28;8797;-57
2023/11/19 05:02:58;;;;;;;;;;;;;;;25.04;43.20;94378.00;4944912;28;7065;-57
2023/11/19 05:06:03;;;;;;;;;;;;;;;25.05;43.74;94379.50;4970492;28;7148;-57
2023/11/19 05:08:28;;;;;;;;;;;;;;;25.05;43.30;94371.25;4965494;28;7261;-57
2023/11/19 05:11:17;;;;;;;;;;;;;;;25.06;43.35;94371.97;4981099;28;7230;-57
2023/11/19 05:13:45;;;;;;;;;;;;;;;25.03;43.48;94376.50;4982773;28;7118;-57
2023/11/19 05:16:14;;;;;;;;;;;;;;;25.06;43.75;94382.97;4976971;28;7235;-57
2023/11/19 05:18:54;;;;;;;;;;;;;;;25.07;43.51;94379.00;4966978;28;8819;-57
2023/11/19 05:21:35;;;;;;;;;;;;;;;25.06;44.19;94385.75;4982866;28;8540;-57
2023/11/19 05:24:48;;;;;;;;;;;;;;;25.05;43.73;94379.50;4983336;28;7255;-57
2023/11/19 05:27:16;;;;;;;;;;;;;;;25.04;44.19;94375.25;4976465;28;8926;-56
2023/11/19 05:30:08;;;;;;;;;;;;;;;25.04;44.21;94378.00;4974428;28;7034;-57
2023/11/19 05:32:47;;;;;;;;;;;;;;;25.05;44.04;94392.50;4966148;28;7128;-57
2023/11/19 05:35:13;;;;;;;;;;;;;;;25.03;44.05;94392.28;4975470;28;7117;-56
2023/11/19 05:37:39;;;;;;;;;;;;;;;25.04;43.42;94399.25;4998608;28;8501;-57
2023/11/19 05:40:32;;;;;;;;;;;;;;;25.04;43.65;94399.25;5037119;28;9452;-57
2023/11/19 05:42:59;;;;;;;;;;;;;;;25.02;43.89;94388.00;5053454;28;7601;-57
2023/11/19 05:46:01;;;;;;;;;;;;;;;25.06;43.88;94391.25;5054444;28;7253;-57
2023/11/19 05:48:48;;;;;;;;;;;;;;;25.03;44.29;94381.25;5045006;28;9257;-57
2023/11/19 05:51:24;;;;;;;;;;;;;;;25.02;43.58;94383.25;5061534;28;8165;-57
2023/11/19 05:54:01;;;;;;;;;;;;;;;25.02;43.39;94391.50;5046936;28;7140;-57
2023/11/19 05:56:37;;;;;;;;;;;;;;;25.01;43.81;94381.03;5048869;28;8818;-57
2023/11/19 05:59:15;;;;;;;;;;;;;;;25.01;43.79;94392.03;5057510;28;9146;-57
2023/11/19 06:01:49;;;;;;;;;;;;;;;25.00;43.54;94376.75;5047700;28;8728;-57
2023/11/19 06:04:16;;;;;;;;;;;;;;;25.00;43.58;94387.78;5058530;28;7356;-56
2023/11/19 06:06:44;;;;;;;;;;;;;;;25.01;44.45;94375.53;5049154;28;9787;-57
2023/11/19 06:09:23;;;;;;;;;;;;;;;25.00;43.97;94374.78;5065310;28;7292;-57
2023/11/19 06:11:55;;;;;;;;;;;;;;;25.03;43.78;94373.75;5062611;28;9042;-61
2023/11/19 06:14:21;;;;;;;;;;;;;;;25.03;44.48;94375.75;5063260;28;7198;-62
2023/11/19 06:16:47;;;;;;;;;;;;;;;25.03;43.82;94382.03;5065800;28;8718;-62
2023/11/19 06:19:14;;;;;;;;;;;;;;;25.04;43.89;94377.25;5048768;28;8796;-62
2023/11/19 06:21:40;;;;;;;;;;;;;;;25.04;43.87;94374.50;5056108;28;9072;-61
2023/11/19 06:24:41;;;;;;;;;;;;;;;25.06;43.57;94380.22;5052824;28;7018;-61
2023/11/19 06:27:25;;;;;;;;;;;;;;;25.06;44.04;94369.22;5011699;28;7195;-62
2023/11/19 06:30:11;;;;;;;;;;;;;;;25.06;44.57;94372.72;4994482;28;7294;-62
2023/11/19 06:32:39;;;;;;;;;;;;;;;25.06;44.39;94374.72;5004842;28;7460;-61
2023/11/19 06:35:35;;;;;;;;;;;;;;;25.06;43.61;94369.22;5010762;28;6989;-62
2023/11/19 06:38:10;;;;;;;;;;;;;;;25.04;43.53;94369.75;5012055;28;9063;-62
2023/11/19 06:40:38;;;;;;;;;;;;;;;25.02;43.68;94374.25;5021380;28;7243;-62
2023/11/19 06:43:08;;;;;;;;;;;;;;;25.04;44.45;94369.75;5012253;28;7000;-62
2023/11/19 06:45:54;;;;;;;;;;;;;;;25.05;43.87;94374.00;5010340;28;8417;-61
2023/11/19 06:48:43;;;;;;;;;;;;;;;25.05;44.34;94378.75;4995114;28;6990;-62
2023/11/19 06:51:19;;;;;;;;;;;;;;;25.03;43.67;94378.50;4997093;28;8883;-62
2023/11/19 06:53:46;;;;;;;;;;;;;;;25.04;44.02;94375.25;5014059;28;6979;-62
2023/11/19 06:56:25;;;;;;;;;;;;;;;25.05;43.88;94365.00;5011128;28;9355;-62
2023/11/19 06:59:19;;;;;;;;;;;;;;;25.05;43.52;94362.25;5011668;28;7143;-62
2023/11/19 07:02:05;;;;;;;;;;;;;;;25.05;43.42;94373.25;4951990;28;7060;-61
2023/11/19 07:04:55;;;;;;;;;;;;;;;25.04;43.88;94371.75;4942107;28;9230;-62
2023/11/19 07:07:32;;;;;;;;;;;;;;;25.03;43.88;94397.78;4958512;28;7231;-61
2023/11/19 07:10:17;;;;;;;;;;;;;;;25.04;43.74;94382.75;4957862;28;9111;-62
2023/11/19 07:12:44;;;;;;;;;;;;;;;25.01;44.31;94373.50;4969464;28;7288;-62
2023/11/19 07:15:39;;;;;;;;;;;;;;;25.08;43.71;94383.97;4961741;28;7005;-62
2023/11/19 07:18:43;;;;;;;;;;;;;;;25.11;44.18;94390.47;4970765;28;7242;-61
2023/11/19 07:21:44;;;;;;;;;;;;;;;25.13;44.49;94390.72;4967814;28;9084;-63
2023/11/19 07:24:13;;;;;;;;;;;;;;;25.13;44.32;94396.22;4958829;28;7090;-55
2023/11/19 07:26:57;;;;;;;;;;;;;;;25.14;43.54;94408.75;4956014;28;7256;-56
2023/11/19 07:29:35;;;;;;;;;;;;;;;25.14;44.31;94397.72;4967691;28;7325;-56
2023/11/19 07:32:25;;;;;;;;;;;;;;;25.13;44.39;94415.47;4971203;28;9573;-55
2023/11/19 07:35:05;;;;;;;;;;;;;;;25.08;43.67;94399.75;4947609;28;9603;-55
2023/11/19 07:38:09;;;;;;;;;;;;;;;25.10;43.71;94394.50;4975235;28;7004;-55
2023/11/19 07:40:40;;;;;;;;;;;;;;;25.09;44.38;94398.50;4959895;28;7085;-55
2023/11/19 07:43:17;;;;;;;;;;;;;;;25.07;44.74;94401.00;4948952;28;9117;-53
2023/11/19 07:45:53;;;;;;;;;;;;;;;25.08;44.45;94400.50;4954716;28;7414;-56
2023/11/19 07:48:23;;;;;;;;;;;;;;;25.09;43.76;94390.25;4965530;28;9417;-56
2023/11/19 07:51:14;;;;;;;;;;;;;;;25.09;44.07;94407.50;4957805;28;7476;-55
2023/11/19 07:53:54;;;;;;;;;;;;;;;25.08;43.90;94403.25;4962439;28;8632;-55
2023/11/19 07:56:36;;;;;;;;;;;;;;;25.10;44.43;94402.75;4958193;28;9561;-55
2023/11/19 07:59:32;;;;;;;;;;;;;;;25.14;44.26;94406.00;4964877;28;7349;-56
2023/11/19 08:02:06;;;;;;;;;;;;;;;25.16;44.37;94408.97;4947730;28;7259;-55
2023/11/19 08:04:34;;;;;;;;;;;;;;;25.16;44.01;94384.97;4941244;28;8794;-56
2023/11/19 08:07:50;;;;;;;;;;;;;;;25.25;43.93;94400.44;4942289;28;9083;-56
2023/11/19 08:10:16;;;;;;;;;;;;;;;25.23;44.43;94402.91;4914005;29;7176;-56
2023/11/19 08:13:01;;;;;;;;;;;;;;;25.24;44.82;94396.91;4916109;29;6974;-56
2023/11/19 08:15:45;;;;;;;;;;;;;;;25.27;44.95;94398.66;4915513;29;7204;-55
2023/11/19 08:18:35;;;;;;;;;;;;;;;25.29;43.96;94395.41;4935610;28;8452;-56
2023/11/19 08:21:10;;;;;;;;;;;;;;;25.31;44.92;94398.38;4918984;29;8105;-55
2023/11/19 08:23:38;;;;;;;;;;;;;;;25.34;44.11;94405.63;4915810;29;7218;-55
2023/11/19 08:26:14;;;;;;;;;;;;;;;25.34;43.94;94402.88;4918811;29;9121;-56
2023/11/19 08:28:40;;;;;;;;;;;;;;;25.32;43.94;94403.38;4915451;29;9118;-56
2023/11/19 08:31:25;;;;;;;;;;;;;;;25.34;44.79;94409.13;4906063;29;8816;-55
2023/11/19 08:33:59;;;;;;;;;;;;;;;25.33;43.59;94417.91;4922664;29;9010;-63
2023/11/19 08:37:04;;;;;;;;;;;;;;;25.32;44.09;94416.41;4919823;29;8773;-63
2023/11/19 08:39:43;;;;;;;;;;;;;;;25.34;44.45;94422.13;4970628;28;8850;-63
2023/11/19 08:42:45;;;;;;;;;;;;;;;25.37;43.79;94407.38;4972278;28;9104;-63
2023/11/19 08:45:11;;;;;;;;;;;;;;;25.39;44.05;94413.09;4973094;28;8742;-62
2023/11/19 08:47:45;;;;;;;;;;;;;;;25.37;43.97;94421.13;5043738;28;7146;-63
2023/11/19 08:50:22;;;;;;;;;;;;;;;25.35;44.24;94420.88;5052884;28;7233;-63
2023/11/19 08:52:56;;;;;;;;;;;;;;;25.37;44.32;94415.63;5054409;28;6999;-63
2023/11/19 08:59:15;;;;;;;;;;;;;;;25.40;43.88;94409.13;5037338;28;7538;-63
2023/11/19 09:02:19;;;;;;;;;;;;;;;25.40;44.55;94409.13;5050717;28;8954;-63
2023/11/19 09:04:54;;;;;;;;;;;;;;;25.41;44.21;94405.09;5041443;28;9126;-63
2023/11/19 09:07:29;;;;;;;;;;;;;;;25.39;43.91;94413.09;5035653;28;7047;-62
2023/11/19 09:10:32;;;;;;;;;;;;;;;25.39;44.13;94418.63;5045204;28;9222;-62
2023/11/19 09:13:07;;;;;;;;;;;;;;;25.38;44.33;94426.13;5025609;28;9056;-62
2023/11/19 09:16:27;;;;;;;;;;;;;;;25.40;43.80;94425.63;5048138;28;7175;-63
2023/11/19 09:18:53;;;;;;;;;;;;;;;25.40;43.78;94436.66;4991505;28;7269;-62
2023/11/19 09:21:30;;;;;;;;;;;;;;;25.42;44.14;94434.16;4982815;28;7577;-63
2023/11/19 09:24:13;;;;;;;;;;;;;;;25.42;44.73;94443.16;4976560;28;6996;-63
2023/11/19 09:26:41;;;;;;;;;;;;;;;25.38;43.99;94442.63;4991489;28;8827;-63
2023/11/19 09:29:22;;;;;;;;;;;;;;;25.38;44.64;94444.66;4991516;28;7224;-63
2023/11/19 09:32:18;;;;;;;;;;;;;;;25.40;43.97;94444.91;4987695;28;7177;-63
2023/11/19 09:34:48;;;;;;;;;;;;;;;25.39;44.26;94446.16;4992153;28;9281;-63
2023/11/19 09:37:40;;;;;;;;;;;;;;;25.42;43.99;94439.66;4976373;28;8729;-63
2023/11/19 09:40:38;;;;;;;;;;;;;;;25.44;44.75;94437.16;4974058;28;8763;-63
2023/11/19 09:43:17;;;;;;;;;;;;;;;25.44;44.18;94434.41;4991138;28;7492;-63
2023/11/19 09:45:54;;;;;;;;;;;;;;;25.47;44.05;94427.84;4974991;28;6985;-63
2023/11/19 09:48:32;;;;;;;;;;;;;;;25.44;44.83;94428.88;4992721;28;8342;-62
2023/11/19 09:54:42;;;;;;;;;;;;;;;25.40;45.16;94420.84;5048646;28;9078;-63
2023/11/19 09:57:56;;;;;;;;;;;;;;;25.38;44.89;94422.63;5064073;28;9462;-63
2023/11/19 10:00:52;;;;;;;;;;;;;;;25.36;44.83;94419.63;4990637;28;9064;-63
2023/11/19 10:03:56;;;;;;;;;;;;;;;25.42;45.12;94417.63;4938235;28;7225;-63
2023/11/19 10:06:26;;;;;;;;;;;;;;;25.37;44.72;94410.88;4914132;29;8331;-63
2023/11/19 10:08:56;;;;;;;;;;;;;;;25.38;45.10;94420.63;4915083;29;9163;-63
2023/11/19 10:11:32;;;;;;;;;;;;;;;25.37;45.11;94410.88;4915420;29;7083;-63
2023/11/19 10:14:00;;;;;;;;;;;;;;;25.38;44.95;94414.38;4915272;29;8785;-62
2023/11/19 10:16:55;;;;;;;;;;;;;;;25.43;44.44;94416.38;4914146;29;9207;-63
2023/11/19 10:19:33;;;;;;;;;;;;;;;25.45;44.58;94426.88;4911468;29;8047;-63
2023/11/19 10:22:24;;;;;;;;;;;;;;;25.45;44.49;94426.88;4903254;29;7202;-63
2023/11/19 10:24:51;;;;;;;;;;;;;;;25.42;44.69;94418.38;4897354;29;7428;-63
2023/11/19 10:27:21;;;;;;;;;;;;;;;25.45;44.66;94410.38;4912418;29;7047;-62
2023/11/19 10:29:50;;;;;;;;;;;;;;;25.44;44.83;94406.88;4904933;29;8351;-63
2023/11/19 10:32:16;;;;;;;;;;;;;;;25.46;45.13;94400.84;4896090;29;9406;-63
2023/11/19 10:34:43;;;;;;;;;;;;;;;25.43;44.53;94410.84;4910813;29;9451;-63
2023/11/19 10:37:49;;;;;;;;;;;;;;;25.45;44.89;94402.84;4932484;28;7229;-62
2023/11/19 10:40:38;;;;;;;;;;;;;;;25.48;45.38;94409.34;5042720;28;8264;-63
2023/11/19 10:43:04;;;;;;;;;;;;;;;25.50;44.49;94412.31;5048312;28;6998;-63
2023/11/19 10:46:13;;;;;;;;;;;;;;;25.51;45.07;94413.84;5048677;28;7097;-63
2023/11/19 10:49:17;;;;;;;;;;;;;;;25.47;45.10;94397.56;5058282;28;6992;-63
2023/11/19 10:52:00;;;;;;;;;;;;;;;25.49;45.09;94406.06;5005983;28;7228;-62
2023/11/19 10:54:44;;;;;;;;;;;;;;;25.53;44.35;94406.56;5003190;28;7468;-61
2023/11/19 10:57:23;;;;;;;;;;;;;;;25.56;44.33;94402.78;5019417;28;9381;-61
2023/11/19 11:00:10;;;;;;;;;;;;;;;25.60;44.40;94400.50;4998660;28;9533;-61
2023/11/19 11:03:25;;;;;;;;;;;;;;;25.63;44.14;94399.47;4995305;28;7095;-61
2023/11/19 11:05:53;;;;;;;;;;;;;;;25.67;45.00;94407.47;4933481;29;7113;-61
2023/11/19 11:08:46;;;;;;;;;;;;;;;25.63;44.11;94401.47;4942503;29;7238;-61
2023/11/19 11:11:38;;;;;;;;;;;;;;;25.62;44.63;94388.97;4912685;29;7145;-61
2023/11/19 11:14:17;;;;;;;;;;;;;;;25.56;44.70;94377.97;4916413;29;7275;-61
2023/11/19 11:17:03;;;;;;;;;;;;;;;25.59;44.88;94390.75;4914309;29;7212;-60
2023/11/19 11:19:46;;;;;;;;;;;;;;;25.58;44.49;94386.47;4937701;29;7221;-61
2023/11/19 11:23:05;;;;;;;;;;;;;;;25.59;44.14;94398.25;4920249;29;7200;-61
2023/11/19 11:25:58;;;;;;;;;;;;;;;25.55;44.75;94395.03;4888213;29;8808;-61
2023/11/19 11:28:45;;;;;;;;;;;;;;;25.52;44.90;94388.53;4924234;29;9078;-61
2023/11/19 11:32:01;;;;;;;;;;;;;;;25.49;45.19;94395.03;4916997;29;7185;-61
2023/11/19 11:34:54;;;;;;;;;;;;;;;25.48;45.09;94390.06;4932302;29;7205;-60
2023/11/19 11:37:48;;;;;;;;;;;;;;;25.49;45.71;94383.31;4929912;29;9099;-61
2023/11/19 11:40:40;;;;;;;;;;;;;;;25.49;45.19;94384.03;4932544;29;7099;-60
2023/11/19 11:43:45;;;;;;;;;;;;;;;25.51;45.04;94375.28;4954161;28;6939;-61
2023/11/19 11:47:05;;;;;;;;;;;;;;;25.51;44.98;94381.53;4969222;28;7236;-61
2023/11/19 11:49:42;;;;;;;;;;;;;;;25.48;45.17;94373.53;4967254;28;7030;-60
2023/11/19 11:52:14;;;;;;;;;;;;;;;25.48;45.37;94363.28;4957645;28;7241;-61
2023/11/19 11:58:23;;;;;;;;;;;;;;;25.47;45.73;94359.00;4972983;28;8365;-60
2023/11/19 12:01:28;;;;;;;;;;;;;;;25.50;45.76;94358.00;5048871;28;9133;-61
2023/11/19 12:04:10;;;;;;;;;;;;;;;25.52;46.17;94357.47;4989626;28;9096;-60
2023/11/19 12:07:26;;;;;;;;;;;;;;;25.52;46.11;94352.72;4970308;28;8537;-60
2023/11/19 12:10:39;;;;;;;;;;;;;;;25.51;45.17;94354.00;4985901;28;7218;-60
2023/11/19 12:13:46;;;;;;;;;;;;;;;25.53;45.63;94345.97;4978129;28;9273;-61
2023/11/19 12:16:47;;;;;;;;;;;;;;;25.49;45.41;94345.47;4951773;28;7221;-61
2023/11/19 12:19:13;;;;;;;;;;;;;;;25.47;45.47;94342.50;4955138;28;7260;-61
2023/11/19 12:21:39;;;;;;;;;;;;;;;25.47;46.38;94331.47;4967020;28;7247;-61
2023/11/19 12:24:39;;;;;;;;;;;;;;;25.50;46.20;94335.22;4941906;28;6992;-60
2023/11/19 12:27:05;;;;;;;;;;;;;;;25.50;45.27;94333.22;4952461;28;9253;-60
2023/11/19 12:30:20;;;;;;;;;;;;;;;25.52;45.81;94327.94;4970136;28;9077;-61
2023/11/19 12:32:47;;;;;;;;;;;;;;;25.54;45.42;94330.19;4875557;29;7271;-61
2023/11/19 12:35:45;;;;;;;;;;;;;;;25.56;45.23;94333.91;4864171;29;7103;-60
2023/11/19 12:38:29;;;;;;;;;;;;;;;25.56;45.64;94325.66;4812966;29;9078;-60
2023/11/19 12:41:17;;;;;;;;;;;;;;;25.57;44.95;94327.16;4822282;29;7453;-61
2023/11/19 12:43:43;;;;;;;;;;;;;;;25.58;45.04;94317.63;4844066;29;8786;-60
2023/11/19 12:46:28;;;;;;;;;;;;;;;25.58;45.76;94319.66;4841038;29;7200;-61
2023/11/19 12:48:54;;;;;;;;;;;;;;;25.61;45.40;94313.84;4842967;29;7838;-61
2023/11/19 12:51:20;;;;;;;;;;;;;;;25.58;45.11;94306.59;4886943;29;7230;-61
2023/11/19 12:54:41;;;;;;;;;;;;;;;25.63;45.56;94314.09;4880708;29;7495;-61
2023/11/19 12:57:10;;;;;;;;;;;;;;;25.64;45.45;94314.84;4825645;29;9505;-61
2023/11/19 12:59:36;;;;;;;;;;;;;;;25.64;45.09;94314.84;4822294;29;6985;-60
2023/11/19 13:02:42;;;;;;;;;;;;;;;25.66;45.56;94304.06;4801915;29;8265;-61
2023/11/19 13:05:40;;;;;;;;;;;;;;;25.66;44.69;94293.78;4829624;29;8030;-61
2023/11/19 13:08:09;;;;;;;;;;;;;;;25.64;45.37;94290.81;4772372;30;7272;-60
2023/11/19 13:11:12;;;;;;;;;;;;;;;25.67;44.61;94289.00;4839251;29;9113;-61
2023/11/19 13:14:08;;;;;;;;;;;;;;;25.68;44.78;94302.28;4840983;29;6994;-61
2023/11/19 13:16:48;;;;;;;;;;;;;;;25.66;44.71;94310.31;4896636;29;7240;-61
2023/11/19 13:19:42;;;;;;;;;;;;;;;25.67;44.47;94298.03;4895470;29;9228;-61
2023/11/19 13:22:08;;;;;;;;;;;;;;;25.69;45.07;94301.00;4839592;29;6971;-63
2023/11/19 13:25:05;;;;;;;;;;;;;;;25.68;45.09;94293.28;4853505;29;9078;-62
2023/11/19 13:27:37;;;;;;;;;;;;;;;25.64;44.59;94285.31;4844222;29;9461;-63
2023/11/19 13:30:37;;;;;;;;;;;;;;;25.67;45.31;94294.53;4843912;29;7339;-63
2023/11/19 13:33:12;;;;;;;;;;;;;;;25.65;44.73;94286.03;4916693;29;7062;-63
2023/11/19 13:39:41;;;;;;;;;;;;;;;25.60;45.11;94295.81;4887753;29;7295;-63
2023/11/19 13:42:27;;;;;;;;;;;;;;;25.65;44.90;94297.03;4879987;29;8223;-63
2023/11/19 13:44:53;;;;;;;;;;;;;;;25.61;44.49;94296.56;4875021;29;7065;-63
2023/11/19 13:47:32;;;;;;;;;;;;;;;25.59;45.11;94299.84;4880857;29;7346;-62
2023/11/19 13:50:35;;;;;;;;;;;;;;;25.61;45.28;94308.34;4895966;29;7256;-63
2023/11/19 13:53:23;;;;;;;;;;;;;;;25.61;45.33;94305.59;4896244;29;8724;-63
2023/11/19 13:56:02;;;;;;;;;;;;;;;25.62;44.53;94304.31;4896479;29;7364;-63
2023/11/19 13:58:38;;;;;;;;;;;;;;;25.60;44.89;94306.84;4938443;28;7324;-63
2023/11/19 14:01:41;;;;;;;;;;;;;;;25.60;44.31;94312.34;4975137;28;7300;-62
2023/11/19 14:04:26;;;;;;;;;;;;;;;25.60;45.16;94308.88;4926757;29;7066;-62
2023/11/19 14:07:36;;;;;;;;;;;;;;;25.62;44.88;94303.59;4919975;28;6871;-62
2023/11/19 14:10:02;;;;;;;;;;;;;;;25.62;47.13;94309.81;4907467;29;7378;-63
2023/11/19 14:12:50;;;;;;;;;;;;;;;25.59;46.10;94307.38;4912424;29;7348;-63
2023/11/19 14:15:17;;;;;;;;;;;;;;;25.59;46.13;94291.59;4925365;28;9147;-63
2023/11/19 14:17:53;;;;;;;;;;;;;;;25.56;45.53;94295.34;4954426;28;7357;-64
2023/11/19 14:20:25;;;;;;;;;;;;;;;25.59;45.55;94293.59;4963839;28;8907;-63
2023/11/19 14:23:12;;;;;;;;;;;;;;;25.60;45.49;94297.84;4971199;28;7217;-63
2023/11/19 14:25:39;;;;;;;;;;;;;;;25.58;45.22;94295.59;4949735;28;9052;-63
2023/11/19 14:28:14;;;;;;;;;;;;;;;25.56;44.78;94289.09;4960384;28;7245;-63
2023/11/19 14:30:41;;;;;;;;;;;;;;;25.59;45.03;94299.84;4953644;28;7469;-63
2023/11/19 14:33:24;;;;;;;;;;;;;;;25.59;45.28;94294.34;4976522;28;9182;-56